Terminal Aerodrome Forecast
Issued by NWS Riverton, WY

Home | Current Version | Previous Version | Text Only | Print | Product List | Glossary On
Versions: 1 2 3 4 5 6 7 8 9 10 11 12 13 14 15
000
FTUS45 KRIW 242353
TAFRIW
TAF
KRIW 242353Z 2500/2524 06008KT P6SM SKC
     FM250900 VRB06KT P6SM SKC
     FM252100 31011KT P6SM FEW100=

USA.gov is the U.S. government's official web portal to all federal, state and local government web resources and services.